sensor_id;sensor_type;location;lat;lon;timestamp;pressure;altitude;pressure_sealevel;temperature;humidity
76858;BME280;65830;0.000;0.000;2023-06-22T00:00:26;99955.63;;;24.30;53.22
76858;BME280;65830;0.000;0.000;2023-06-22T00:02:52;99960.03;;;24.31;53.48
76858;BME280;65830;0.000;0.000;2023-06-22T00:05:17;99955.88;;;24.28;53.64
76858;BME280;65830;0.000;0.000;2023-06-22T00:07:43;99953.38;;;24.27;54.11
76858;BME280;65830;0.000;0.000;2023-06-22T00:10:08;99961.31;;;24.28;53.85
76858;BME280;65830;0.000;0.000;2023-06-22T00:12:34;99960.72;;;24.19;55.33
76858;BME280;65830;0.000;0.000;2023-06-22T00:14:59;99961.28;;;24.03;55.86
76858;BME280;65830;0.000;0.000;2023-06-22T00:17:25;99958.16;;;23.99;56.29
76858;BME280;65830;0.000;0.000;2023-06-22T00:19:50;99955.34;;;23.88;56.65
76858;BME280;65830;0.000;0.000;2023-06-22T00:22:19;99960.41;;;23.77;57.00
76858;BME280;65830;0.000;0.000;2023-06-22T00:24:53;99967.88;;;23.82;56.79
76858;BME280;65830;0.000;0.000;2023-06-22T00:27:19;99970.41;;;23.70;57.28
76858;BME280;65830;0.000;0.000;2023-06-22T00:29:44;99975.63;;;23.72;57.68
76858;BME280;65830;0.000;0.000;2023-06-22T00:32:10;99972.50;;;23.68;57.69
76858;BME280;65830;0.000;0.000;2023-06-22T00:34:35;99970.06;;;23.60;57.95
76858;BME280;65830;0.000;0.000;2023-06-22T00:37:01;99974.41;;;23.68;57.76
76858;BME280;65830;0.000;0.000;2023-06-22T00:39:27;99977.16;;;23.61;57.75
76858;BME280;65830;0.000;0.000;2023-06-22T00:41:53;99979.50;;;23.51;58.19
76858;BME280;65830;0.000;0.000;2023-06-22T00:44:19;99985.53;;;23.53;58.24
76858;BME280;65830;0.000;0.000;2023-06-22T00:46:45;99974.72;;;23.46;58.57
76858;BME280;65830;0.000;0.000;2023-06-22T00:49:10;99982.41;;;23.49;58.63
76858;BME280;65830;0.000;0.000;2023-06-22T00:51:36;99984.06;;;23.50;58.56
76858;BME280;65830;0.000;0.000;2023-06-22T00:54:04;99985.53;;;23.53;58.24
76858;BME280;65830;0.000;0.000;2023-06-22T00:56:31;99983.84;;;23.52;58.36
76858;BME280;65830;0.000;0.000;2023-06-22T00:58:58;99982.88;;;23.39;58.49
76858;BME280;65830;0.000;0.000;2023-06-22T01:01:24;99975.56;;;23.40;58.69
76858;BME280;65830;0.000;0.000;2023-06-22T01:03:50;99975.38;;;23.42;58.37
76858;BME280;65830;0.000;0.000;2023-06-22T01:06:20;99981.41;;;23.44;58.00
76858;BME280;65830;0.000;0.000;2023-06-22T01:09:06;99983.94;;;23.32;58.31
76858;BME280;65830;0.000;0.000;2023-06-22T01:11:37;99986.03;;;23.30;58.35
76858;BME280;65830;0.000;0.000;2023-06-22T01:14:12;99986.88;;;23.30;58.26
76858;BME280;65830;0.000;0.000;2023-06-22T01:16:40;99980.88;;;23.22;58.45
76858;BME280;65830;0.000;0.000;2023-06-22T01:19:15;99989.00;;;23.15;57.97
76858;BME280;65830;0.000;0.000;2023-06-22T01:21:44;99986.97;;;23.04;58.36
76858;BME280;65830;0.000;0.000;2023-06-22T01:24:14;99990.69;;;23.03;58.65
76858;BME280;65830;0.000;0.000;2023-06-22T01:26:57;99975.69;;;23.00;58.47
76858;BME280;65830;0.000;0.000;2023-06-22T01:29:25;99980.91;;;23.02;58.81
76858;BME280;65830;0.000;0.000;2023-06-22T01:31:52;99974.25;;;22.91;59.59
76858;BME280;65830;0.000;0.000;2023-06-22T01:34:19;99974.47;;;22.89;60.22
76858;BME280;65830;0.000;0.000;2023-06-22T01:36:45;99977.00;;;22.77;60.42
76858;BME280;65830;0.000;0.000;2023-06-22T01:39:11;99978.28;;;22.62;60.66
76858;BME280;65830;0.000;0.000;2023-06-22T01:41:37;99972.03;;;22.68;60.71
76858;BME280;65830;0.000;0.000;2023-06-22T01:44:06;99973.69;;;22.69;60.27
76858;BME280;65830;0.000;0.000;2023-06-22T01:46:33;99963.09;;;22.60;60.21
76858;BME280;65830;0.000;0.000;2023-06-22T01:48:59;99965.78;;;22.60;60.20
76858;BME280;65830;0.000;0.000;2023-06-22T01:51:25;99963.72;;;22.49;60.71
76858;BME280;65830;0.000;0.000;2023-06-22T01:53:50;99969.97;;;22.43;60.98
76858;BME280;65830;0.000;0.000;2023-06-22T01:56:18;99973.94;;;22.34;61.32
76858;BME280;65830;0.000;0.000;2023-06-22T01:58:46;99976.41;;;22.42;60.95
76858;BME280;65830;0.000;0.000;2023-06-22T02:01:13;99974.13;;;22.52;60.92
76858;BME280;65830;0.000;0.000;2023-06-22T02:03:53;99977.88;;;22.45;60.78
76858;BME280;65830;0.000;0.000;2023-06-22T02:06:28;99992.00;;;22.27;61.15
76858;BME280;65830;0.000;0.000;2023-06-22T02:11:21;99978.44;;;22.07;60.97
76858;BME280;65830;0.000;0.000;2023-06-22T02:13:47;99976.16;;;21.97;60.86
76858;BME280;65830;0.000;0.000;2023-06-22T02:16:13;99981.13;;;22.00;60.74
76858;BME280;65830;0.000;0.000;2023-06-22T02:18:45;99981.56;;;22.04;60.83
76858;BME280;65830;0.000;0.000;2023-06-22T02:21:11;99986.94;;;21.84;61.05
76858;BME280;65830;0.000;0.000;2023-06-22T02:23:37;99984.03;;;21.85;61.27
76858;BME280;65830;0.000;0.000;2023-06-22T02:26:02;99982.34;;;21.77;61.81
76858;BME280;65830;0.000;0.000;2023-06-22T02:28:28;99989.63;;;21.77;61.86
76858;BME280;65830;0.000;0.000;2023-06-22T02:30:54;99991.91;;;21.73;62.20
76858;BME280;65830;0.000;0.000;2023-06-22T02:33:19;99989.38;;;21.65;62.34
76858;BME280;65830;0.000;0.000;2023-06-22T02:35:45;99988.56;;;21.71;62.13
76858;BME280;65830;0.000;0.000;2023-06-22T02:38:14;99985.44;;;21.68;62.27
76858;BME280;65830;0.000;0.000;2023-06-22T02:40:40;99993.91;;;21.51;62.47
76858;BME280;65830;0.000;0.000;2023-06-22T02:43:05;99993.66;;;21.46;62.55
76858;BME280;65830;0.000;0.000;2023-06-22T02:45:31;100000.75;;;21.47;62.47
76858;BME280;65830;0.000;0.000;2023-06-22T02:47:57;99998.88;;;21.48;62.83
76858;BME280;65830;0.000;0.000;2023-06-22T02:50:23;100005.22;;;21.33;63.23
76858;BME280;65830;0.000;0.000;2023-06-22T02:52:48;100006.88;;;21.34;63.14
76858;BME280;65830;0.000;0.000;2023-06-22T02:55:14;100000.03;;;21.38;62.76
76858;BME280;65830;0.000;0.000;2023-06-22T02:57:41;100008.56;;;21.42;62.52
76858;BME280;65830;0.000;0.000;2023-06-22T03:00:09;100008.94;;;21.32;62.66
76858;BME280;65830;0.000;0.000;2023-06-22T03:02:46;100004.13;;;21.21;63.02
76858;BME280;65830;0.000;0.000;2023-06-22T03:05:12;100008.22;;;21.10;62.97
76858;BME280;65830;0.000;0.000;2023-06-22T03:07:44;100013.81;;;21.09;63.10
76858;BME280;65830;0.000;0.000;2023-06-22T03:10:11;100009.84;;;21.05;62.93
76858;BME280;65830;0.000;0.000;2023-06-22T03:12:37;100016.47;;;21.02;63.23
76858;BME280;65830;0.000;0.000;2023-06-22T03:15:06;100013.13;;;21.00;63.17
76858;BME280;65830;0.000;0.000;2023-06-22T03:17:33;100022.22;;;20.92;62.75
76858;BME280;65830;0.000;0.000;2023-06-22T03:19:59;100014.31;;;20.91;62.71
76858;BME280;65830;0.000;0.000;2023-06-22T03:22:24;100022.41;;;20.91;62.65
76858;BME280;65830;0.000;0.000;2023-06-22T03:24:50;100029.69;;;20.90;62.32
76858;BME280;65830;0.000;0.000;2023-06-22T03:27:15;100026.59;;;20.93;62.06
76858;BME280;65830;0.000;0.000;2023-06-22T03:29:41;100027.00;;;20.97;62.23
76858;BME280;65830;0.000;0.000;2023-06-22T03:32:06;100027.56;;;20.86;61.97
76858;BME280;65830;0.000;0.000;2023-06-22T03:34:32;100032.91;;;20.79;61.99
76858;BME280;65830;0.000;0.000;2023-06-22T03:37:04;100030.22;;;20.79;62.10
76858;BME280;65830;0.000;0.000;2023-06-22T03:39:30;100036.19;;;20.74;62.13
76858;BME280;65830;0.000;0.000;2023-06-22T03:41:57;100031.72;;;20.88;62.00
76858;BME280;65830;0.000;0.000;2023-06-22T03:44:23;100035.25;;;20.89;61.91
76858;BME280;65830;0.000;0.000;2023-06-22T03:46:48;100028.31;;;20.73;62.32
76858;BME280;65830;0.000;0.000;2023-06-22T03:49:14;100034.34;;;20.75;62.37
76858;BME280;65830;0.000;0.000;2023-06-22T03:51:39;100038.84;;;20.68;62.96
76858;BME280;65830;0.000;0.000;2023-06-22T03:54:05;100036.19;;;20.74;62.72
76858;BME280;65830;0.000;0.000;2023-06-22T03:56:30;100044.41;;;20.59;63.39
76858;BME280;65830;0.000;0.000;2023-06-22T03:58:56;100038.59;;;20.62;63.47
76858;BME280;65830;0.000;0.000;2023-06-22T04:01:22;100034.19;;;20.83;63.06
76858;BME280;65830;0.000;0.000;2023-06-22T04:03:47;100034.41;;;20.81;63.21
76858;BME280;65830;0.000;0.000;2023-06-22T04:06:15;100039.16;;;20.79;63.56
76858;BME280;65830;0.000;0.000;2023-06-22T04:08:40;100027.44;;;20.66;64.12
76858;BME280;65830;0.000;0.000;2023-06-22T04:11:06;100027.72;;;20.77;63.68
76858;BME280;65830;0.000;0.000;2023-06-22T04:13:31;100029.19;;;20.80;63.39
76858;BME280;65830;0.000;0.000;2023-06-22T04:15:57;100035.03;;;20.83;63.40
76858;BME280;65830;0.000;0.000;2023-06-22T04:18:22;100045.81;;;20.83;63.27
76858;BME280;65830;0.000;0.000;2023-06-22T04:20:48;100042.34;;;20.90;63.09
76858;BME280;65830;0.000;0.000;2023-06-22T04:23:13;100037.03;;;21.03;62.83
76858;BME280;65830;0.000;0.000;2023-06-22T04:25:39;100042.47;;;21.10;62.70
76858;BME280;65830;0.000;0.000;2023-06-22T04:28:04;100043.38;;;21.23;62.46
76858;BME280;65830;0.000;0.000;2023-06-22T04:30:32;100045.47;;;21.28;62.62
76858;BME280;65830;0.000;0.000;2023-06-22T04:32:57;100039.50;;;21.33;62.25
76858;BME280;65830;0.000;0.000;2023-06-22T04:35:23;100042.84;;;21.41;62.27
76858;BME280;65830;0.000;0.000;2023-06-22T04:37:49;100039.59;;;21.53;62.18
76858;BME280;65830;0.000;0.000;2023-06-22T04:40:15;100044.59;;;21.56;61.52
76858;BME280;65830;0.000;0.000;2023-06-22T04:42:40;100051.69;;;21.70;61.30
76858;BME280;65830;0.000;0.000;2023-06-22T04:45:06;100056.72;;;21.73;61.02
76858;BME280;65830;0.000;0.000;2023-06-22T04:47:31;100052.75;;;21.76;61.11
76858;BME280;65830;0.000;0.000;2023-06-22T04:49:57;100053.00;;;21.74;60.91
76858;BME280;65830;0.000;0.000;2023-06-22T04:52:22;100053.38;;;21.71;61.12
76858;BME280;65830;0.000;0.000;2023-06-22T04:54:49;100050.50;;;21.79;60.88
76858;BME280;65830;0.000;0.000;2023-06-22T04:57:20;100047.84;;;21.93;60.70
76858;BME280;65830;0.000;0.000;2023-06-22T04:59:46;100034.53;;;21.91;60.45
76858;BME280;65830;0.000;0.000;2023-06-22T05:02:11;100035.59;;;21.97;60.46
76858;BME280;65830;0.000;0.000;2023-06-22T05:04:37;100038.50;;;21.95;60.84
76858;BME280;65830;0.000;0.000;2023-06-22T05:07:03;100027.69;;;22.02;60.66
76858;BME280;65830;0.000;0.000;2023-06-22T05:09:29;100029.16;;;22.11;60.49
76858;BME280;65830;0.000;0.000;2023-06-22T05:11:55;100031.28;;;22.23;60.29
76858;BME280;65830;0.000;0.000;2023-06-22T05:14:25;100036.50;;;22.31;59.72
76858;BME280;65830;0.000;0.000;2023-06-22T05:16:50;100036.50;;;22.37;60.10
76858;BME280;65830;0.000;0.000;2023-06-22T05:19:17;100032.34;;;22.41;60.04
76858;BME280;65830;0.000;0.000;2023-06-22T05:21:42;100034.00;;;22.49;59.90
76858;BME280;65830;0.000;0.000;2023-06-22T05:24:08;100033.63;;;22.52;59.49
76858;BME280;65830;0.000;0.000;2023-06-22T05:26:33;100035.69;;;22.50;59.92
76858;BME280;65830;0.000;0.000;2023-06-22T05:29:00;100034.44;;;22.59;59.62
76858;BME280;65830;0.000;0.000;2023-06-22T05:31:26;100034.84;;;22.63;59.89
76858;BME280;65830;0.000;0.000;2023-06-22T05:33:53;100045.88;;;22.68;59.91
76858;BME280;65830;0.000;0.000;2023-06-22T05:36:18;100036.53;;;22.77;59.82
76858;BME280;65830;0.000;0.000;2023-06-22T05:38:50;100032.34;;;22.88;59.85
76858;BME280;65830;0.000;0.000;2023-06-22T05:41:16;100034.41;;;22.99;59.74
76858;BME280;65830;0.000;0.000;2023-06-22T05:43:41;100033.78;;;23.11;59.20
76858;BME280;65830;0.000;0.000;2023-06-22T05:46:06;100031.84;;;23.25;58.86
76858;BME280;65830;0.000;0.000;2023-06-22T05:48:32;100038.91;;;23.32;58.76
76858;BME280;65830;0.000;0.000;2023-06-22T05:50:58;100037.19;;;23.45;57.85
76858;BME280;65830;0.000;0.000;2023-06-22T05:53:23;100038.63;;;23.54;57.10
76858;BME280;65830;0.000;0.000;2023-06-22T05:55:49;100037.97;;;23.58;56.59
76858;BME280;65830;0.000;0.000;2023-06-22T05:58:14;100038.59;;;23.67;55.43
76858;BME280;65830;0.000;0.000;2023-06-22T06:00:40;100038.97;;;23.77;55.30
76858;BME280;65830;0.000;0.000;2023-06-22T06:03:09;100031.25;;;23.81;55.09
76858;BME280;65830;0.000;0.000;2023-06-22T06:05:35;100033.31;;;23.86;54.55
76858;BME280;65830;0.000;0.000;2023-06-22T06:08:01;100042.88;;;23.88;53.94
76858;BME280;65830;0.000;0.000;2023-06-22T06:10:28;100036.59;;;23.94;53.72
76858;BME280;65830;0.000;0.000;2023-06-22T06:12:55;100031.28;;;24.06;53.67
76858;BME280;65830;0.000;0.000;2023-06-22T06:15:21;100039.34;;;24.19;53.11
76858;BME280;65830;0.000;0.000;2023-06-22T06:17:50;100030.06;;;24.34;52.83
76858;BME280;65830;0.000;0.000;2023-06-22T06:20:18;100028.31;;;24.46;52.37
76858;BME280;65830;0.000;0.000;2023-06-22T06:22:44;100023.25;;;24.50;52.07
76858;BME280;65830;0.000;0.000;2023-06-22T06:25:10;100026.78;;;24.57;51.91
76858;BME280;65830;0.000;0.000;2023-06-22T06:27:35;100028.22;;;24.60;51.98
76858;BME280;65830;0.000;0.000;2023-06-22T06:30:01;100022.38;;;24.63;51.63
76858;BME280;65830;0.000;0.000;2023-06-22T06:32:27;100028.13;;;24.73;51.88
76858;BME280;65830;0.000;0.000;2023-06-22T06:34:53;100021.28;;;24.89;51.09
76858;BME280;65830;0.000;0.000;2023-06-22T06:37:18;100025.75;;;25.02;50.75
76858;BME280;65830;0.000;0.000;2023-06-22T06:39:44;100028.63;;;25.07;50.48
76858;BME280;65830;0.000;0.000;2023-06-22T06:42:09;100027.41;;;25.21;49.35
76858;BME280;65830;0.000;0.000;2023-06-22T06:44:36;100025.03;;;25.31;49.21
76858;BME280;65830;0.000;0.000;2023-06-22T06:47:03;100033.31;;;25.36;49.61
76858;BME280;65830;0.000;0.000;2023-06-22T06:49:29;100029.38;;;25.51;49.49
76858;BME280;65830;0.000;0.000;2023-06-22T06:51:54;100028.03;;;25.60;48.89
76858;BME280;65830;0.000;0.000;2023-06-22T06:54:21;100019.44;;;25.63;48.63
76858;BME280;65830;0.000;0.000;2023-06-22T06:56:47;100022.41;;;25.73;48.49
76858;BME280;65830;0.000;0.000;2023-06-22T06:59:13;100028.56;;;25.81;47.77
76858;BME280;65830;0.000;0.000;2023-06-22T07:01:39;100017.19;;;25.90;48.07
76858;BME280;65830;0.000;0.000;2023-06-22T07:04:05;100012.84;;;26.01;48.05
76858;BME280;65830;0.000;0.000;2023-06-22T07:06:30;100021.88;;;26.13;48.02
76858;BME280;65830;0.000;0.000;2023-06-22T07:08:57;100011.72;;;26.21;46.95
76858;BME280;65830;0.000;0.000;2023-06-22T07:11:22;100012.44;;;26.28;47.19
76858;BME280;65830;0.000;0.000;2023-06-22T07:13:48;100010.22;;;26.37;46.77
76858;BME280;65830;0.000;0.000;2023-06-22T07:16:13;100019.81;;;26.39;46.13
76858;BME280;65830;0.000;0.000;2023-06-22T07:18:39;100021.13;;;26.48;46.41
76858;BME280;65830;0.000;0.000;2023-06-22T07:21:05;100017.22;;;26.44;46.53
76858;BME280;65830;0.000;0.000;2023-06-22T07:23:32;100017.47;;;26.54;45.53
76858;BME280;65830;0.000;0.000;2023-06-22T07:25:57;100026.13;;;26.63;45.97
76858;BME280;65830;0.000;0.000;2023-06-22T07:28:23;100012.41;;;26.58;45.46
76858;BME280;65830;0.000;0.000;2023-06-22T07:30:48;100026.13;;;26.75;45.34
76858;BME280;65830;0.000;0.000;2023-06-22T07:33:16;100025.53;;;26.73;44.72
76858;BME280;65830;0.000;0.000;2023-06-22T07:35:42;100035.13;;;26.75;44.70
76858;BME280;65830;0.000;0.000;2023-06-22T07:38:08;100031.13;;;26.78;44.12
76858;BME280;65830;0.000;0.000;2023-06-22T07:40:34;100021.16;;;26.84;44.25
76858;BME280;65830;0.000;0.000;2023-06-22T07:43:00;100031.13;;;26.90;44.23
76858;BME280;65830;0.000;0.000;2023-06-22T07:45:26;100016.28;;;26.98;43.66
76858;BME280;65830;0.000;0.000;2023-06-22T07:47:51;100022.44;;;27.05;43.10
76858;BME280;65830;0.000;0.000;2023-06-22T07:50:17;100027.31;;;27.26;42.85
76858;BME280;65830;0.000;0.000;2023-06-22T07:52:42;100022.78;;;27.32;42.62
76858;BME280;65830;0.000;0.000;2023-06-22T07:55:07;100026.09;;;27.34;42.60
76858;BME280;65830;0.000;0.000;2023-06-22T07:57:33;100020.63;;;27.46;41.77
76858;BME280;65830;0.000;0.000;2023-06-22T08:00:03;100011.47;;;27.52;42.52
76858;BME280;65830;0.000;0.000;2023-06-22T08:02:46;100010.97;;;27.55;42.16
76858;BME280;65830;0.000;0.000;2023-06-22T08:05:13;100011.94;;;27.49;42.51
76858;BME280;65830;0.000;0.000;2023-06-22T08:07:38;100012.66;;;27.56;42.32
76858;BME280;65830;0.000;0.000;2023-06-22T08:10:04;100008.09;;;27.73;40.88
76858;BME280;65830;0.000;0.000;2023-06-22T08:12:30;100002.97;;;27.77;42.59
76858;BME280;65830;0.000;0.000;2023-06-22T08:14:55;100001.38;;;27.93;41.17
76858;BME280;65830;0.000;0.000;2023-06-22T08:17:22;99999.00;;;28.13;40.17
76858;BME280;65830;0.000;0.000;2023-06-22T08:19:48;99995.03;;;28.04;40.02
76858;BME280;65830;0.000;0.000;2023-06-22T08:22:13;99995.38;;;28.08;40.65
76858;BME280;65830;0.000;0.000;2023-06-22T08:24:39;99993.97;;;28.05;39.83
76858;BME280;65830;0.000;0.000;2023-06-22T08:27:06;99996.97;;;28.21;39.00
76858;BME280;65830;0.000;0.000;2023-06-22T08:29:33;99986.06;;;28.21;39.31
76858;BME280;65830;0.000;0.000;2023-06-22T08:31:59;99989.59;;;28.21;40.39
76858;BME280;65830;0.000;0.000;2023-06-22T08:34:28;99983.38;;;28.26;38.09
76858;BME280;65830;0.000;0.000;2023-06-22T08:36:54;99981.09;;;28.35;38.22
76858;BME280;65830;0.000;0.000;2023-06-22T08:39:20;99979.81;;;28.42;38.49
76858;BME280;65830;0.000;0.000;2023-06-22T08:41:47;99973.47;;;28.37;38.31
76858;BME280;65830;0.000;0.000;2023-06-22T08:44:18;99982.31;;;28.27;38.86
76858;BME280;65830;0.000;0.000;2023-06-22T08:46:48;99979.53;;;28.56;37.67
76858;BME280;65830;0.000;0.000;2023-06-22T08:49:14;99980.09;;;28.58;37.78
76858;BME280;65830;0.000;0.000;2023-06-22T08:51:40;99976.28;;;28.42;39.19
76858;BME280;65830;0.000;0.000;2023-06-22T08:54:05;99977.38;;;28.58;37.99
76858;BME280;65830;0.000;0.000;2023-06-22T08:56:31;99978.41;;;28.74;38.13
76858;BME280;65830;0.000;0.000;2023-06-22T08:58:57;99981.19;;;28.57;39.08
76858;BME280;65830;0.000;0.000;2023-06-22T09:01:22;99977.84;;;28.71;38.17
76858;BME280;65830;0.000;0.000;2023-06-22T09:03:48;99977.31;;;28.52;40.36
76858;BME280;65830;0.000;0.000;2023-06-22T09:06:20;99978.38;;;28.51;38.56
76858;BME280;65830;0.000;0.000;2023-06-22T09:08:46;99976.34;;;28.64;36.98
76858;BME280;65830;0.000;0.000;2023-06-22T09:11:12;99975.72;;;28.96;35.56
76858;BME280;65830;0.000;0.000;2023-06-22T09:13:37;99974.19;;;29.05;35.45
76858;BME280;65830;0.000;0.000;2023-06-22T09:16:03;99976.78;;;28.73;38.76
76858;BME280;65830;0.000;0.000;2023-06-22T09:18:29;99972.00;;;28.63;36.85
76858;BME280;65830;0.000;0.000;2023-06-22T09:20:54;99970.66;;;28.48;39.24
76858;BME280;65830;0.000;0.000;2023-06-22T09:23:20;99974.28;;;28.20;39.99
76858;BME280;65830;0.000;0.000;2023-06-22T09:25:45;99963.44;;;28.42;35.83
76858;BME280;65830;0.000;0.000;2023-06-22T09:28:13;99962.56;;;28.54;34.91
76858;BME280;65830;0.000;0.000;2023-06-22T09:30:39;99962.88;;;28.40;38.73
76858;BME280;65830;0.000;0.000;2023-06-22T09:33:04;99966.44;;;28.24;37.79
76858;BME280;65830;0.000;0.000;2023-06-22T09:35:30;99956.94;;;28.09;40.01
76858;BME280;65830;0.000;0.000;2023-06-22T09:37:55;99959.91;;;28.08;39.32
76858;BME280;65830;0.000;0.000;2023-06-22T09:40:21;99953.94;;;28.62;35.58
76858;BME280;65830;0.000;0.000;2023-06-22T09:42:46;99952.38;;;28.88;36.46
76858;BME280;65830;0.000;0.000;2023-06-22T09:45:12;99952.84;;;29.02;35.40
76858;BME280;65830;0.000;0.000;2023-06-22T09:47:37;99959.19;;;29.07;35.73
76858;BME280;65830;0.000;0.000;2023-06-22T09:50:03;99948.47;;;29.01;36.58
76858;BME280;65830;0.000;0.000;2023-06-22T09:52:29;99949.03;;;29.03;37.22
76858;BME280;65830;0.000;0.000;2023-06-22T09:54:54;99946.09;;;29.26;34.42
76858;BME280;65830;0.000;0.000;2023-06-22T09:57:20;99953.91;;;29.40;33.97
76858;BME280;65830;0.000;0.000;2023-06-22T09:59:45;99951.03;;;29.52;36.02
76858;BME280;65830;0.000;0.000;2023-06-22T10:02:11;99944.22;;;29.54;34.48
76858;BME280;65830;0.000;0.000;2023-06-22T10:04:36;99958.22;;;29.63;33.55
76858;BME280;65830;0.000;0.000;2023-06-22T10:07:02;99953.91;;;29.40;36.89
76858;BME280;65830;0.000;0.000;2023-06-22T10:09:28;99944.94;;;29.00;37.89
76858;BME280;65830;0.000;0.000;2023-06-22T10:11:53;99948.44;;;29.18;33.18
76858;BME280;65830;0.000;0.000;2023-06-22T10:14:19;99951.31;;;29.55;32.92
76858;BME280;65830;0.000;0.000;2023-06-22T10:16:45;99944.09;;;29.44;36.03
76858;BME280;65830;0.000;0.000;2023-06-22T10:19:10;99940.56;;;29.21;36.99
76858;BME280;65830;0.000;0.000;2023-06-22T10:21:36;99948.09;;;28.92;37.51
76858;BME280;65830;0.000;0.000;2023-06-22T10:24:03;99936.75;;;28.61;38.34
76858;BME280;65830;0.000;0.000;2023-06-22T10:26:34;99934.91;;;28.67;37.99
76858;BME280;65830;0.000;0.000;2023-06-22T10:29:00;99929.25;;;28.74;36.42
76858;BME280;65830;0.000;0.000;2023-06-22T10:31:26;99925.31;;;28.47;38.54
76858;BME280;65830;0.000;0.000;2023-06-22T10:33:53;99918.72;;;28.43;38.58
76858;BME280;65830;0.000;0.000;2023-06-22T10:36:18;99914.41;;;28.30;39.11
76858;BME280;65830;0.000;0.000;2023-06-22T10:38:44;99919.25;;;28.23;39.04
76858;BME280;65830;0.000;0.000;2023-06-22T10:41:10;99914.25;;;28.20;37.35
76858;BME280;65830;0.000;0.000;2023-06-22T10:43:36;99906.72;;;28.61;37.42
76858;BME280;65830;0.000;0.000;2023-06-22T10:46:01;99910.03;;;28.85;35.66
76858;BME280;65830;0.000;0.000;2023-06-22T10:48:27;99899.38;;;29.06;36.20
76858;BME280;65830;0.000;0.000;2023-06-22T10:50:52;99893.28;;;28.99;34.68
76858;BME280;65830;0.000;0.000;2023-06-22T10:53:18;99894.88;;;29.17;35.40
76858;BME280;65830;0.000;0.000;2023-06-22T10:55:44;99888.25;;;29.62;33.39
76858;BME280;65830;0.000;0.000;2023-06-22T10:58:09;99896.22;;;29.41;36.61
76858;BME280;65830;0.000;0.000;2023-06-22T11:00:35;99888.13;;;29.02;37.08
76858;BME280;65830;0.000;0.000;2023-06-22T11:03:00;99885.44;;;28.85;37.55
76858;BME280;65830;0.000;0.000;2023-06-22T11:05:26;99879.16;;;28.63;38.18
76858;BME280;65830;0.000;0.000;2023-06-22T11:07:51;99888.22;;;28.46;38.30
76858;BME280;65830;0.000;0.000;2023-06-22T11:10:17;99879.34;;;28.56;37.52
76858;BME280;65830;0.000;0.000;2023-06-22T11:12:42;99882.75;;;28.46;38.62
76858;BME280;65830;0.000;0.000;2023-06-22T11:15:08;99882.84;;;28.51;38.55
76858;BME280;65830;0.000;0.000;2023-06-22T11:17:34;99885.41;;;28.41;38.26
76858;BME280;65830;0.000;0.000;2023-06-22T11:19:59;99891.34;;;28.55;37.58
76858;BME280;65830;0.000;0.000;2023-06-22T11:22:25;99879.84;;;28.53;38.16
76858;BME280;65830;0.000;0.000;2023-06-22T11:24:51;99877.63;;;28.72;37.10
76858;BME280;65830;0.000;0.000;2023-06-22T11:27:16;99876.06;;;28.76;37.20
76858;BME280;65830;0.000;0.000;2023-06-22T11:29:42;99871.47;;;28.82;35.70
76858;BME280;65830;0.000;0.000;2023-06-22T11:32:07;99880.69;;;28.98;36.84
76858;BME280;65830;0.000;0.000;2023-06-22T11:34:33;99878.66;;;29.10;36.84
76858;BME280;65830;0.000;0.000;2023-06-22T11:36:58;99885.00;;;29.38;36.22
76858;BME280;65830;0.000;0.000;2023-06-22T11:39:24;99880.19;;;29.23;36.40
76858;BME280;65830;0.000;0.000;2023-06-22T11:41:49;99894.28;;;29.37;36.35
76858;BME280;65830;0.000;0.000;2023-06-22T11:44:15;99881.69;;;29.36;36.05
76858;BME280;65830;0.000;0.000;2023-06-22T11:46:40;99872.28;;;29.81;34.75
76858;BME280;65830;0.000;0.000;2023-06-22T11:49:06;99862.47;;;30.65;32.92
76858;BME280;65830;0.000;0.000;2023-06-22T11:51:32;99876.13;;;30.55;34.05
76858;BME280;65830;0.000;0.000;2023-06-22T11:53:57;99876.16;;;30.65;33.91
76858;BME280;65830;0.000;0.000;2023-06-22T11:56:24;99872.53;;;30.49;34.64
76858;BME280;65830;0.000;0.000;2023-06-22T11:58:49;99881.97;;;30.79;34.49
76858;BME280;65830;0.000;0.000;2023-06-22T12:01:14;99874.69;;;31.05;33.20
76858;BME280;65830;0.000;0.000;2023-06-22T12:03:41;99875.78;;;31.04;33.48
76858;BME280;65830;0.000;0.000;2023-06-22T12:06:08;99865.44;;;31.37;31.78
76858;BME280;65830;0.000;0.000;2023-06-22T12:08:34;99870.41;;;31.45;32.63
76858;BME280;65830;0.000;0.000;2023-06-22T12:10:59;99849.56;;;31.44;32.93
76858;BME280;65830;0.000;0.000;2023-06-22T12:13:25;99854.81;;;31.51;32.38
76858;BME280;65830;0.000;0.000;2023-06-22T12:15:50;99860.84;;;31.68;32.18
76858;BME280;65830;0.000;0.000;2023-06-22T12:18:17;99857.84;;;31.80;32.17
76858;BME280;65830;0.000;0.000;2023-06-22T12:20:45;99853.13;;;32.32;30.95
76858;BME280;65830;0.000;0.000;2023-06-22T12:23:11;99855.06;;;32.16;31.21
76858;BME280;65830;0.000;0.000;2023-06-22T12:25:37;99854.22;;;32.20;31.28
76858;BME280;65830;0.000;0.000;2023-06-22T12:28:02;99843.28;;;32.15;31.68
76858;BME280;65830;0.000;0.000;2023-06-22T12:30:29;99846.03;;;32.15;31.58
76858;BME280;65830;0.000;0.000;2023-06-22T12:32:55;99844.03;;;32.41;30.89
76858;BME280;65830;0.000;0.000;2023-06-22T12:35:20;99828.72;;;32.90;30.05
76858;BME280;65830;0.000;0.000;2023-06-22T12:37:46;99832.88;;;32.82;30.75
76858;BME280;65830;0.000;0.000;2023-06-22T12:40:12;99838.94;;;32.84;31.07
76858;BME280;65830;0.000;0.000;2023-06-22T12:42:37;99826.38;;;32.68;30.82
76858;BME280;65830;0.000;0.000;2023-06-22T12:45:03;99831.13;;;32.42;30.80
76858;BME280;65830;0.000;0.000;2023-06-22T12:47:30;99820.25;;;32.06;31.95
76858;BME280;65830;0.000;0.000;2023-06-22T12:49:56;99818.31;;;31.96;31.91
76858;BME280;65830;0.000;0.000;2023-06-22T12:52:22;99823.53;;;31.77;32.10
76858;BME280;65830;0.000;0.000;2023-06-22T12:54:47;99822.47;;;31.58;32.01
76858;BME280;65830;0.000;0.000;2023-06-22T12:57:14;99827.84;;;31.22;33.19
76858;BME280;65830;0.000;0.000;2023-06-22T12:59:39;99820.41;;;31.02;33.13
76858;BME280;65830;0.000;0.000;2023-06-22T13:02:05;99824.25;;;30.91;33.12
76858;BME280;65830;0.000;0.000;2023-06-22T13:04:30;99825.16;;;30.54;34.51